createdAt,value
2024-01-14T00:00:38.910Z,86.3
2024-01-14T00:01:38.715Z,86.4
2024-01-14T00:02:38.686Z,86.3
2024-01-14T00:03:38.803Z,85.8
2024-01-14T00:04:38.795Z,85.7
2024-01-14T00:05:38.749Z,86.6
2024-01-14T00:06:38.699Z,86.7
2024-01-14T00:07:38.719Z,86.1
2024-01-14T00:08:38.695Z,86
2024-01-14T00:09:38.718Z,85.1
2024-01-14T00:10:38.677Z,85.1
2024-01-14T00:11:38.709Z,85.9
2024-01-14T00:12:38.677Z,85.8
2024-01-14T00:13:38.709Z,85.6
2024-01-14T00:14:39.054Z,85.3
2024-01-14T00:15:38.750Z,85
2024-01-14T00:16:38.697Z,83.9
2024-01-14T00:17:38.813Z,83.6
2024-01-14T00:18:38.876Z,84.8
2024-01-14T00:19:38.946Z,85.4
2024-01-14T00:20:38.725Z,85.8
2024-01-14T00:21:38.770Z,85.7
2024-01-14T00:22:38.700Z,85.9
2024-01-14T00:23:38.712Z,85.9
2024-01-14T00:24:38.707Z,85.7
2024-01-14T00:25:38.694Z,85.9
2024-01-14T00:26:38.730Z,85.6
2024-01-14T00:27:38.702Z,85.5
2024-01-14T00:28:38.691Z,86.3
2024-01-14T00:29:38.706Z,86.8
2024-01-14T00:30:38.747Z,86.4
2024-01-14T00:31:38.772Z,86.2
2024-01-14T00:32:38.712Z,86.3
2024-01-14T00:33:38.772Z,85.6
2024-01-14T00:34:38.730Z,84.8
2024-01-14T00:35:40.404Z,84.8
2024-01-14T00:36:38.742Z,85.8
2024-01-14T00:37:38.686Z,87.1
2024-01-14T00:38:38.694Z,86
2024-01-14T00:39:38.721Z,86
2024-01-14T00:40:38.684Z,85.1
2024-01-14T00:41:38.671Z,85.2
2024-01-14T00:42:38.716Z,85.2
2024-01-14T00:43:38.619Z,84.9
2024-01-14T00:44:38.690Z,85.1
2024-01-14T00:45:38.705Z,85.9
2024-01-14T00:46:38.709Z,86.1
2024-01-14T00:47:38.700Z,85.9
2024-01-14T00:48:38.803Z,86.4
2024-01-14T00:49:38.858Z,86.2
2024-01-14T00:50:38.665Z,86.2
2024-01-14T00:51:38.835Z,86.5
2024-01-14T00:52:38.685Z,86.3
2024-01-14T00:53:38.682Z,85.2
2024-01-14T00:54:38.725Z,85.9
2024-01-14T00:55:38.672Z,86.5
2024-01-14T00:56:38.681Z,85.9
2024-01-14T00:57:38.738Z,86.8
2024-01-14T00:58:38.689Z,86.5
2024-01-14T00:59:38.676Z,86.5
2024-01-14T01:00:38.812Z,86.5
2024-01-14T01:01:38.684Z,86.5
2024-01-14T01:02:38.679Z,86.2
2024-01-14T01:03:38.729Z,86.2
2024-01-14T01:04:38.759Z,85.7
2024-01-14T01:05:38.822Z,85.1
2024-01-14T01:06:38.772Z,85
2024-01-14T01:07:38.681Z,85.4
2024-01-14T01:08:38.660Z,86.2
2024-01-14T01:09:38.701Z,86.7
2024-01-14T01:10:38.673Z,86.4
2024-01-14T01:11:38.688Z,86
2024-01-14T01:12:38.745Z,85.3
2024-01-14T01:13:38.687Z,85.6
2024-01-14T01:14:38.679Z,85.7
2024-01-14T01:15:38.760Z,85.7
2024-01-14T01:16:38.677Z,85.4
2024-01-14T01:17:38.705Z,85.3
2024-01-14T01:18:38.866Z,85.6
2024-01-14T01:19:38.809Z,85.3
2024-01-14T01:20:38.690Z,85.7
2024-01-14T01:21:38.709Z,86
2024-01-14T01:22:38.719Z,86.1
2024-01-14T01:23:38.745Z,86.1
2024-01-14T01:24:38.731Z,86.4
2024-01-14T01:25:38.693Z,86.3
2024-01-14T01:26:38.703Z,86.1
2024-01-14T01:27:38.741Z,86
2024-01-14T01:28:38.704Z,85.8
2024-01-14T01:29:38.685Z,85
2024-01-14T01:30:38.744Z,84.7
2024-01-14T01:31:46.132Z,84.8
2024-01-14T01:32:38.805Z,84.3
2024-01-14T01:33:38.849Z,84.5
2024-01-14T01:34:39.047Z,84.5
2024-01-14T01:35:38.698Z,84.8
2024-01-14T01:36:38.749Z,84.9
2024-01-14T01:37:38.682Z,85.1
2024-01-14T01:38:38.704Z,85
2024-01-14T01:39:38.699Z,85.4
2024-01-14T01:40:38.707Z,85.4
2024-01-14T01:41:38.709Z,85.8
2024-01-14T01:42:38.717Z,85.6
2024-01-14T01:43:38.705Z,85
2024-01-14T01:44:38.682Z,85.4
2024-01-14T01:45:38.708Z,85.6
2024-01-14T01:46:38.723Z,85.7
2024-01-14T01:47:38.734Z,85.7
2024-01-14T01:48:38.849Z,85.9
2024-01-14T01:49:38.756Z,85.7
2024-01-14T01:50:38.726Z,85.6
2024-01-14T01:51:38.682Z,85.7
2024-01-14T01:52:38.707Z,86.1
2024-01-14T01:53:38.668Z,86.1
2024-01-14T01:54:38.705Z,85.8
2024-01-14T01:55:38.691Z,86
2024-01-14T01:56:38.704Z,85.9
2024-01-14T01:57:38.709Z,85.7
2024-01-14T01:58:38.692Z,85.4
2024-01-14T01:59:38.703Z,85.3
2024-01-14T02:00:38.828Z,85.4
2024-01-14T02:01:38.721Z,85.6
2024-01-14T02:02:38.724Z,85.2
2024-01-14T02:03:38.871Z,85.7
2024-01-14T02:04:38.759Z,85.5
2024-01-14T02:05:38.723Z,85.4
2024-01-14T02:06:38.745Z,85.5
2024-01-14T02:07:38.701Z,86
2024-01-14T02:08:38.706Z,85.9
2024-01-14T02:09:38.701Z,85.3
2024-01-14T02:10:38.712Z,85.4
2024-01-14T02:11:38.690Z,85.6
2024-01-14T02:12:38.752Z,85.7
2024-01-14T02:13:38.667Z,85.5
2024-01-14T02:14:38.684Z,85.2
2024-01-14T02:15:38.759Z,85.8
2024-01-14T02:16:38.692Z,86
2024-01-14T02:17:38.767Z,85.8
2024-01-14T02:18:38.795Z,85.4
2024-01-14T02:19:38.797Z,85.6
2024-01-14T02:20:38.693Z,85.5
2024-01-14T02:21:38.670Z,85.5
2024-01-14T02:22:38.665Z,85.7
2024-01-14T02:23:38.637Z,85.9
2024-01-14T02:24:38.658Z,85.8
2024-01-14T02:25:38.662Z,85.9
2024-01-14T02:26:38.686Z,86.1
2024-01-14T02:27:38.767Z,86.1
2024-01-14T02:28:38.690Z,85.9
2024-01-14T02:29:38.679Z,86
2024-01-14T02:30:38.754Z,85.8
2024-01-14T02:31:38.643Z,86.3
2024-01-14T02:32:38.856Z,85.8
2024-01-14T02:33:38.778Z,85.8
2024-01-14T02:34:38.972Z,85.6
2024-01-14T02:35:38.677Z,86.2
2024-01-14T02:36:38.666Z,86.3
2024-01-14T02:37:38.682Z,86.5
2024-01-14T02:38:38.662Z,86.4
2024-01-14T02:39:38.794Z,86.2
2024-01-14T02:40:38.678Z,85.8
2024-01-14T02:41:38.662Z,85.6
2024-01-14T02:42:38.713Z,85.6
2024-01-14T02:43:38.643Z,85.4
2024-01-14T02:44:38.666Z,85.3
2024-01-14T02:45:38.781Z,85.5
2024-01-14T02:46:38.681Z,85.1
2024-01-14T02:47:38.750Z,84.9
2024-01-14T02:48:38.799Z,84.7
2024-01-14T02:49:38.685Z,85
2024-01-14T02:50:38.667Z,85.1
2024-01-14T02:51:38.768Z,85.1
2024-01-14T02:52:38.689Z,85
2024-01-14T02:53:38.696Z,84.8
2024-01-14T02:54:38.720Z,84.8
2024-01-14T02:55:38.705Z,84.7
2024-01-14T02:56:38.675Z,84.7
2024-01-14T02:57:38.744Z,84.8
2024-01-14T02:58:38.709Z,84.7
2024-01-14T02:59:38.702Z,84.5
2024-01-14T03:00:38.853Z,84.6
2024-01-14T03:01:38.682Z,84.8
2024-01-14T03:02:38.752Z,84.6
2024-01-14T03:03:38.745Z,84.5
2024-01-14T03:04:38.710Z,84.4
2024-01-14T03:05:38.715Z,84.3
2024-01-14T03:06:38.716Z,84.4
2024-01-14T03:07:38.726Z,84.3
2024-01-14T03:08:38.690Z,83.8
2024-01-14T03:09:38.708Z,84.2
2024-01-14T03:10:38.704Z,84.6
2024-01-14T03:11:38.715Z,84.6
2024-01-14T03:12:38.739Z,84.4
2024-01-14T03:13:38.699Z,84.3
2024-01-14T03:14:38.696Z,83.9
2024-01-14T03:15:38.712Z,84.3
2024-01-14T03:16:38.715Z,84.5
2024-01-14T03:17:38.789Z,84.6
2024-01-14T03:18:38.850Z,84.5
2024-01-14T03:19:38.846Z,85
2024-01-14T03:20:38.710Z,85.3
2024-01-14T03:21:38.707Z,85.3
2024-01-14T03:22:38.690Z,84.7
2024-01-14T03:23:38.648Z,84.6
2024-01-14T03:24:38.693Z,84.7
2024-01-14T03:25:38.710Z,84.7
2024-01-14T03:26:38.737Z,85
2024-01-14T03:27:38.731Z,85.1
2024-01-14T03:28:38.696Z,85.8
2024-01-14T03:29:38.691Z,85.2
2024-01-14T03:30:38.828Z,85.3
2024-01-14T03:31:38.684Z,85.4
2024-01-14T03:32:38.713Z,85.1
2024-01-14T03:33:38.821Z,85.3
2024-01-14T03:34:38.748Z,85.3
2024-01-14T03:35:38.710Z,85.5
2024-01-14T03:36:38.717Z,85.4
2024-01-14T03:37:38.704Z,85.6
2024-01-14T03:38:38.689Z,85
2024-01-14T03:39:38.720Z,85
2024-01-14T03:40:38.701Z,84.9
2024-01-14T03:41:38.650Z,85.2
2024-01-14T03:42:38.738Z,85.6
2024-01-14T03:43:38.777Z,85.4
2024-01-14T03:44:38.691Z,84.6
2024-01-14T03:45:38.732Z,85
2024-01-14T03:46:38.721Z,85.2
2024-01-14T03:47:38.717Z,85.4
2024-01-14T03:48:38.892Z,85.9
2024-01-14T03:49:38.884Z,85.8
2024-01-14T03:50:38.679Z,85.5
2024-01-14T03:51:38.730Z,85.6
2024-01-14T03:52:38.675Z,85.5
2024-01-14T03:53:38.687Z,85
2024-01-14T03:54:38.758Z,85.4
2024-01-14T03:55:38.682Z,85.1
2024-01-14T03:56:38.705Z,85.5
2024-01-14T03:57:38.719Z,85.1
2024-01-14T03:58:38.692Z,84.9
2024-01-14T03:59:38.696Z,84.5
2024-01-14T04:00:38.719Z,85.2
2024-01-14T04:01:38.687Z,84.7
2024-01-14T04:02:38.698Z,84.8
2024-01-14T04:03:38.717Z,84.5
2024-01-14T04:04:38.764Z,84.5
2024-01-14T04:05:38.656Z,84.3
2024-01-14T04:06:38.828Z,84.7
2024-01-14T04:07:38.668Z,84.8
2024-01-14T04:08:38.653Z,84.8
2024-01-14T04:09:38.784Z,84.5
2024-01-14T04:10:38.693Z,84.6
2024-01-14T04:11:38.689Z,84.9
2024-01-14T04:12:38.744Z,85
2024-01-14T04:13:38.687Z,85.3
2024-01-14T04:14:38.674Z,85.1
2024-01-14T04:15:38.783Z,84.9
2024-01-14T04:16:38.692Z,84.8
2024-01-14T04:17:38.699Z,84.5
2024-01-14T04:18:38.700Z,84.7
2024-01-14T04:19:38.744Z,84.7
2024-01-14T04:20:38.680Z,84.3
2024-01-14T04:21:38.776Z,84.4
2024-01-14T04:22:38.688Z,84.3
2024-01-14T04:23:38.663Z,84.4
2024-01-14T04:24:38.706Z,84.4
2024-01-14T04:25:38.690Z,84.5
2024-01-14T04:26:38.692Z,84.7
2024-01-14T04:27:38.762Z,84.7
2024-01-14T04:28:38.662Z,84.9
2024-01-14T04:29:38.699Z,84.9
2024-01-14T04:30:38.781Z,84.9
2024-01-14T04:31:38.698Z,85.1
2024-01-14T04:32:38.695Z,85.3
2024-01-14T04:33:38.788Z,85.3
2024-01-14T04:34:38.662Z,85.1
2024-01-14T04:35:38.685Z,84.9
2024-01-14T04:36:38.782Z,85.1
2024-01-14T04:37:38.697Z,84.8
2024-01-14T04:38:38.695Z,84.8
2024-01-14T04:39:38.692Z,84.7
2024-01-14T04:40:38.697Z,84.6
2024-01-14T04:41:38.686Z,84.4
2024-01-14T04:42:38.740Z,84.6
2024-01-14T04:43:38.680Z,84.5
2024-01-14T04:44:38.656Z,84.6
2024-01-14T04:45:38.714Z,84.6
2024-01-14T04:46:38.683Z,84.2
2024-01-14T04:47:38.790Z,84.4
2024-01-14T04:48:38.903Z,84.6
2024-01-14T04:49:38.760Z,84.1
2024-01-14T04:50:38.790Z,84.3
2024-01-14T04:51:38.751Z,84.2
2024-01-14T04:52:38.703Z,84.3
2024-01-14T04:53:38.674Z,84.1
2024-01-14T04:54:38.681Z,84.2
2024-01-14T04:55:38.660Z,84.4
2024-01-14T04:56:38.660Z,84.5
2024-01-14T04:57:38.691Z,84.4
2024-01-14T04:58:38.681Z,84.4
2024-01-14T04:59:38.676Z,84.6
2024-01-14T05:00:38.832Z,84.7
2024-01-14T05:01:38.673Z,84.5
2024-01-14T05:02:38.681Z,84.6
2024-01-14T05:03:38.799Z,84.9
2024-01-14T05:04:38.690Z,84.5
2024-01-14T05:05:38.675Z,84.8
2024-01-14T05:06:38.720Z,84.6
2024-01-14T05:07:38.680Z,84.8
2024-01-14T05:08:38.632Z,84.6
2024-01-14T05:09:38.708Z,84.3
2024-01-14T05:10:38.696Z,84.5
2024-01-14T05:11:38.663Z,84.5
2024-01-14T05:12:38.704Z,84.3
2024-01-14T05:13:38.709Z,84.2
2024-01-14T05:14:38.708Z,84
2024-01-14T05:15:38.704Z,84.1
2024-01-14T05:16:38.694Z,84.1
2024-01-14T05:17:38.772Z,83.9
2024-01-14T05:18:38.793Z,83.6
2024-01-14T05:19:38.806Z,83.5
2024-01-14T05:20:38.719Z,83.8
2024-01-14T05:21:38.732Z,83.8
2024-01-14T05:22:38.671Z,83.6
2024-01-14T05:23:38.670Z,83.4
2024-01-14T05:24:38.680Z,83.5
2024-01-14T05:25:38.695Z,83
2024-01-14T05:26:38.694Z,83.3
2024-01-14T05:27:38.699Z,83.6
2024-01-14T05:28:38.704Z,83.8
2024-01-14T05:29:38.667Z,83.8
2024-01-14T05:30:38.843Z,83.9
2024-01-14T05:31:38.720Z,84.2
2024-01-14T05:32:38.706Z,84.1
2024-01-14T05:33:38.785Z,84.2
2024-01-14T05:34:38.691Z,84.1
2024-01-14T05:35:38.687Z,84.2
2024-01-14T05:36:38.685Z,84.3
2024-01-14T05:37:38.678Z,84.3
2024-01-14T05:38:38.698Z,84.5
2024-01-14T05:39:38.682Z,84.8
2024-01-14T05:40:38.689Z,84.9
2024-01-14T05:41:38.667Z,85
2024-01-14T05:42:38.684Z,85.1
2024-01-14T05:43:38.699Z,85.1
2024-01-14T05:44:38.670Z,85
2024-01-14T05:45:38.711Z,85.3
2024-01-14T05:46:38.704Z,85.4
2024-01-14T05:47:38.705Z,85.4
2024-01-14T05:48:38.777Z,85.4
2024-01-14T05:49:38.775Z,85.6
2024-01-14T05:50:38.614Z,85.3
2024-01-14T05:51:38.702Z,84.8
2024-01-14T05:52:38.701Z,84.4
2024-01-14T05:53:41.415Z,84.4
2024-01-14T05:54:38.684Z,84.2
2024-01-14T05:55:38.687Z,84.1
2024-01-14T05:56:38.698Z,84.2
2024-01-14T05:57:38.734Z,84.1
2024-01-14T05:58:38.694Z,84
2024-01-14T05:59:38.686Z,83.9
2024-01-14T06:00:38.745Z,84
2024-01-14T06:01:38.692Z,84
2024-01-14T06:02:38.737Z,84.1
2024-01-14T06:03:38.715Z,84.4
2024-01-14T06:04:38.692Z,84.5
2024-01-14T06:05:38.639Z,84.4
2024-01-14T06:06:38.885Z,84.2
2024-01-14T06:07:38.767Z,84.3
2024-01-14T06:08:38.696Z,84.3
2024-01-14T06:09:38.690Z,84.1
2024-01-14T06:10:40.466Z,83.7
2024-01-14T06:11:38.710Z,83.4
2024-01-14T06:12:38.749Z,83
2024-01-14T06:13:38.683Z,83
2024-01-14T06:14:38.688Z,82.8
2024-01-14T06:15:38.821Z,82.6
2024-01-14T06:16:38.695Z,83.1
2024-01-14T06:17:38.733Z,83.7
2024-01-14T06:18:38.855Z,83.9
2024-01-14T06:19:38.789Z,83.7
2024-01-14T06:20:38.685Z,83.8
2024-01-14T06:21:38.687Z,84.1
2024-01-14T06:22:38.660Z,84.1
2024-01-14T06:23:38.670Z,84.1
2024-01-14T06:24:38.845Z,84.2
2024-01-14T06:25:38.675Z,84
2024-01-14T06:26:38.671Z,83.6
2024-01-14T06:27:38.694Z,83.6
2024-01-14T06:28:38.692Z,83.8
2024-01-14T06:29:38.699Z,83.8
2024-01-14T06:30:38.747Z,84.2
2024-01-14T06:31:38.678Z,84.3
2024-01-14T06:32:38.667Z,84.2
2024-01-14T06:33:38.797Z,84.5
2024-01-14T06:34:38.899Z,84.5
2024-01-14T06:35:38.662Z,84.5
2024-01-14T06:36:38.706Z,84.3
2024-01-14T06:37:38.680Z,83.9
2024-01-14T06:38:38.670Z,84.4
2024-01-14T06:39:38.673Z,84.6
2024-01-14T06:40:41.316Z,84.6
2024-01-14T06:41:38.688Z,84.3
2024-01-14T06:42:38.718Z,84.4
2024-01-14T06:43:39.101Z,84.6
2024-01-14T06:44:38.682Z,84.6
2024-01-14T06:45:38.682Z,84.5
2024-01-14T06:46:38.667Z,84.3
2024-01-14T06:47:38.719Z,84.3
2024-01-14T06:48:38.779Z,84.2
2024-01-14T06:49:38.788Z,84.1
2024-01-14T06:50:38.676Z,84
2024-01-14T06:51:38.700Z,83.2
2024-01-14T06:52:38.679Z,83.1
2024-01-14T06:53:38.680Z,83.1
2024-01-14T06:54:38.803Z,83.3
2024-01-14T06:55:38.684Z,83
2024-01-14T06:56:38.659Z,83
2024-01-14T06:57:38.712Z,82.8
2024-01-14T06:58:38.683Z,82.8
2024-01-14T06:59:38.642Z,82.9
2024-01-14T07:00:38.824Z,82.9
2024-01-14T07:01:38.721Z,83
2024-01-14T07:02:38.668Z,82.7
2024-01-14T07:03:38.769Z,82.6
2024-01-14T07:04:38.816Z,82.6
2024-01-14T07:05:38.707Z,82.9
2024-01-14T07:06:38.724Z,82.5
2024-01-14T07:07:38.657Z,82.4
2024-01-14T07:08:38.687Z,82.4
2024-01-14T07:09:38.730Z,82.2
2024-01-14T07:10:38.719Z,82.3
2024-01-14T07:11:38.696Z,82.2
2024-01-14T07:12:38.701Z,82.1
2024-01-14T07:13:38.660Z,82
2024-01-14T07:14:38.688Z,82
2024-01-14T07:15:39.646Z,81.8
2024-01-14T07:16:38.691Z,81.8
2024-01-14T07:17:54.319Z,82
2024-01-14T07:18:38.803Z,81.9
2024-01-14T07:19:38.896Z,81.7
2024-01-14T07:20:38.723Z,81.6
2024-01-14T07:21:38.701Z,81.7
2024-01-14T07:22:38.684Z,82
2024-01-14T07:23:45.447Z,82.1
2024-01-14T07:24:38.694Z,81.3
2024-01-14T07:25:38.686Z,81.1
2024-01-14T07:26:38.697Z,80.6
2024-01-14T07:27:38.764Z,80.4
2024-01-14T07:28:38.671Z,80.5
2024-01-14T07:29:38.697Z,80.4
2024-01-14T07:30:38.768Z,80.7
2024-01-14T07:31:38.718Z,80.3
2024-01-14T07:32:38.697Z,80
2024-01-14T07:33:38.821Z,79.7
2024-01-14T07:34:38.806Z,79.1
2024-01-14T07:35:38.670Z,79.2
2024-01-14T07:36:38.738Z,79.3
2024-01-14T07:37:38.688Z,79.3
2024-01-14T07:38:38.653Z,78.8
2024-01-14T07:39:38.747Z,78.4
2024-01-14T07:40:38.676Z,79.1
2024-01-14T07:41:38.687Z,78.9
2024-01-14T07:42:38.694Z,79.1
2024-01-14T07:43:38.669Z,79.4
2024-01-14T07:44:38.690Z,79
2024-01-14T07:45:38.736Z,79
2024-01-14T07:46:38.689Z,79
2024-01-14T07:47:38.699Z,79.5
2024-01-14T07:48:38.889Z,78.7
2024-01-14T07:49:38.712Z,78.7
2024-01-14T07:50:38.675Z,78.4
2024-01-14T07:51:38.727Z,79
2024-01-14T07:52:38.674Z,79.6
2024-01-14T07:53:38.679Z,79.2
2024-01-14T07:54:38.731Z,78.4
2024-01-14T07:55:38.671Z,78.2
2024-01-14T07:56:38.685Z,78.8
2024-01-14T07:57:38.694Z,78.8
2024-01-14T07:58:38.674Z,78.9
2024-01-14T07:59:38.704Z,79.1
2024-01-14T08:00:45.460Z,79.1
2024-01-14T08:01:38.714Z,79
2024-01-14T08:02:38.838Z,78.9
2024-01-14T08:03:38.739Z,79
2024-01-14T08:04:38.786Z,78.9
2024-01-14T08:05:38.684Z,79.2
2024-01-14T08:06:38.711Z,78.6
2024-01-14T08:07:38.687Z,78.5
2024-01-14T08:08:38.673Z,78.6
2024-01-14T08:09:38.727Z,78
2024-01-14T08:10:38.659Z,78.2
2024-01-14T08:11:38.704Z,78.4
2024-01-14T08:12:41.998Z,78
2024-01-14T08:13:38.647Z,77.9
2024-01-14T08:14:38.686Z,77.8
2024-01-14T08:15:49.180Z,77.9
2024-01-14T08:16:38.685Z,77
2024-01-14T08:17:38.890Z,77.4
2024-01-14T08:18:38.797Z,76.9
2024-01-14T08:19:38.739Z,76.1
2024-01-14T08:20:38.690Z,76.8
2024-01-14T08:21:38.820Z,77.3
2024-01-14T08:22:38.741Z,77.4
2024-01-14T08:23:38.663Z,77.3
2024-01-14T08:24:38.802Z,77.2
2024-01-14T08:25:38.688Z,77.8
2024-01-14T08:26:38.667Z,77.5
2024-01-14T08:27:38.704Z,77.8
2024-01-14T08:28:38.678Z,76.5
2024-01-14T08:29:38.686Z,76.3
2024-01-14T08:30:38.733Z,76
2024-01-14T08:31:38.716Z,76.1
2024-01-14T08:32:38.723Z,75.8
2024-01-14T08:33:38.862Z,77
2024-01-14T08:34:39.122Z,76.9
2024-01-14T08:35:38.679Z,76.7
2024-01-14T08:36:38.800Z,76.6
2024-01-14T08:37:38.678Z,76
2024-01-14T08:38:38.687Z,76.7
2024-01-14T08:39:38.772Z,76.3
2024-01-14T08:40:38.651Z,76.9
2024-01-14T08:41:38.698Z,76.6
2024-01-14T08:42:38.672Z,75.8
2024-01-14T08:43:38.707Z,74.2
2024-01-14T08:44:38.670Z,74.6
2024-01-14T08:45:38.739Z,74
2024-01-14T08:46:38.676Z,74.5
2024-01-14T08:47:38.688Z,74
2024-01-14T08:48:38.919Z,74.8
2024-01-14T08:49:38.756Z,74.6
2024-01-14T08:50:38.689Z,73.7
2024-01-14T08:51:38.720Z,75.5
2024-01-14T08:52:38.686Z,75.4
2024-01-14T08:53:38.695Z,72.7
2024-01-14T08:54:38.772Z,74.5
2024-01-14T08:55:38.701Z,74.6
2024-01-14T08:56:38.715Z,72.6
2024-01-14T08:57:38.725Z,74.3
2024-01-14T08:58:38.670Z,73.9
2024-01-14T08:59:38.694Z,73.6
2024-01-14T09:00:38.740Z,75.1
2024-01-14T09:01:38.704Z,73.6
2024-01-14T09:02:38.666Z,72.3
2024-01-14T09:03:38.756Z,73.2
2024-01-14T09:04:38.894Z,72.5
2024-01-14T09:05:38.713Z,72.6
2024-01-14T09:06:38.796Z,72.2
2024-01-14T09:07:38.662Z,72.4
2024-01-14T09:08:38.677Z,72.3
2024-01-14T09:09:38.793Z,71.4
2024-01-14T09:10:38.695Z,71.5
2024-01-14T09:11:38.657Z,72.1
2024-01-14T09:12:38.896Z,72.1
2024-01-14T09:13:38.699Z,71.6
2024-01-14T09:14:38.674Z,71.7
2024-01-14T09:15:38.743Z,71.9
2024-01-14T09:16:38.671Z,73
2024-01-14T09:17:38.839Z,74.1
2024-01-14T09:18:38.846Z,74.1
2024-01-14T09:19:38.749Z,73.6
2024-01-14T09:20:38.692Z,73.8
2024-01-14T09:21:38.796Z,74.3
2024-01-14T09:22:38.686Z,73.7
2024-01-14T09:23:38.682Z,73.5
2024-01-14T09:24:38.865Z,74.1
2024-01-14T09:25:38.662Z,74.4
2024-01-14T09:26:38.686Z,74.2
2024-01-14T09:27:38.695Z,73.3
2024-01-14T09:28:38.680Z,73.5
2024-01-14T09:29:38.682Z,74.4
2024-01-14T09:30:38.712Z,74.4
2024-01-14T09:31:38.708Z,73.1
2024-01-14T09:32:38.698Z,73.7
2024-01-14T09:33:38.871Z,73.8
2024-01-14T09:34:38.800Z,72.9
2024-01-14T09:35:38.665Z,73.2
2024-01-14T09:36:38.759Z,73.4
2024-01-14T09:37:38.669Z,73.5
2024-01-14T09:38:38.697Z,73.7
2024-01-14T09:39:38.735Z,72.1
2024-01-14T09:40:38.643Z,72.4
2024-01-14T09:41:38.689Z,72.6
2024-01-14T09:42:38.779Z,72.6
2024-01-14T09:43:38.694Z,72.2
2024-01-14T09:44:38.694Z,73.1
2024-01-14T09:45:42.526Z,72.5
2024-01-14T09:46:38.661Z,73.4
2024-01-14T09:47:38.711Z,73
2024-01-14T09:48:38.844Z,71.7
2024-01-14T09:49:38.832Z,71.4
2024-01-14T09:50:38.686Z,72.1
2024-01-14T09:51:38.736Z,71.9
2024-01-14T09:52:38.733Z,70.2
2024-01-14T09:53:38.725Z,70.4
2024-01-14T09:54:38.788Z,72
2024-01-14T09:55:38.693Z,71.4
2024-01-14T09:56:38.692Z,72
2024-01-14T09:57:38.734Z,72.5
2024-01-14T09:58:38.693Z,71.2
2024-01-14T09:59:38.700Z,71.4
2024-01-14T10:00:38.779Z,72.5
2024-01-14T10:01:38.695Z,72.4
2024-01-14T10:02:38.692Z,71.9
2024-01-14T10:03:38.696Z,72.1
2024-01-14T10:04:38.778Z,72.7
2024-01-14T10:05:38.884Z,72.5
2024-01-14T10:06:38.826Z,72
2024-01-14T10:07:38.787Z,72.3
2024-01-14T10:08:38.698Z,71.8
2024-01-14T10:09:38.756Z,71.7
2024-01-14T10:10:38.665Z,70.8
2024-01-14T10:11:38.707Z,71.1
2024-01-14T10:12:38.857Z,71.9
2024-01-14T10:13:38.694Z,69.3
2024-01-14T10:14:38.680Z,67.6
2024-01-14T10:15:45.715Z,68.7
2024-01-14T10:16:51.759Z,70.2
2024-01-14T10:17:38.688Z,69.4
2024-01-14T10:18:38.743Z,69.8
2024-01-14T10:19:39.007Z,68.9
2024-01-14T10:20:38.671Z,69.3
2024-01-14T10:21:39.250Z,69.9
2024-01-14T10:22:38.643Z,70.3
2024-01-14T10:23:38.677Z,68.8
2024-01-14T10:24:38.730Z,67.6
2024-01-14T10:25:38.701Z,67.1
2024-01-14T10:26:38.681Z,67.2
2024-01-14T10:27:38.895Z,68.6
2024-01-14T10:28:38.724Z,66.9
2024-01-14T10:29:38.648Z,65.1
2024-01-14T10:30:38.888Z,66.3
2024-01-14T10:31:38.772Z,65.8
2024-01-14T10:33:15.514Z,64.3
2024-01-14T10:33:38.820Z,65.2
2024-01-14T10:34:38.935Z,64.7
2024-01-14T10:35:38.865Z,65.5
2024-01-14T10:36:38.733Z,64.2
2024-01-14T10:37:38.673Z,62.9
2024-01-14T10:38:38.693Z,63.1
2024-01-14T10:39:38.786Z,62.7
2024-01-14T10:40:38.673Z,64.1
2024-01-14T10:41:38.675Z,63.7
2024-01-14T10:42:38.696Z,62.9
2024-01-14T10:43:38.722Z,63.7
2024-01-14T10:44:38.725Z,63.5
2024-01-14T10:45:38.715Z,62.8
2024-01-14T10:46:38.652Z,62.3
2024-01-14T10:47:38.717Z,62.9
2024-01-14T10:48:38.777Z,62.3
2024-01-14T10:49:38.677Z,63.1
2024-01-14T10:50:45.106Z,63.9
2024-01-14T10:51:38.674Z,64.6
2024-01-14T10:52:38.702Z,63.7
2024-01-14T10:53:38.676Z,62.8
2024-01-14T10:54:38.754Z,62.7
2024-01-14T10:55:38.651Z,63.8
2024-01-14T10:56:38.699Z,63
2024-01-14T10:57:38.731Z,61.9
2024-01-14T10:58:38.649Z,62
2024-01-14T10:59:38.691Z,63.1
2024-01-14T11:00:38.762Z,62.1
2024-01-14T11:01:38.745Z,61.3
2024-01-14T11:02:38.775Z,61
2024-01-14T11:03:38.831Z,59.3
2024-01-14T11:04:38.702Z,60
2024-01-14T11:05:38.812Z,60.8
2024-01-14T11:06:38.776Z,60.2
2024-01-14T11:07:38.647Z,59.6
2024-01-14T11:08:38.708Z,60.5
2024-01-14T11:09:38.699Z,60.4
2024-01-14T11:10:38.690Z,60.1
2024-01-14T11:11:38.710Z,59.9
2024-01-14T11:12:39.588Z,58.6
2024-01-14T11:13:38.700Z,58.4
2024-01-14T11:14:38.707Z,59.4
2024-01-14T11:15:39.315Z,59.4
2024-01-14T11:16:38.661Z,59
2024-01-14T11:17:38.708Z,58.7
2024-01-14T11:18:38.880Z,57.5
2024-01-14T11:19:38.892Z,57.8
2024-01-14T11:20:49.473Z,57.8
2024-01-14T11:21:51.837Z,58.2
2024-01-14T11:22:43.554Z,57.1
2024-01-14T11:23:38.749Z,57
2024-01-14T11:24:38.799Z,56.8
2024-01-14T11:25:38.695Z,56.9
2024-01-14T11:26:38.652Z,58
2024-01-14T11:27:38.702Z,57.2
2024-01-14T11:28:38.681Z,57.1
2024-01-14T11:29:38.694Z,57.3
2024-01-14T11:30:38.728Z,56.8
2024-01-14T11:31:38.738Z,57.3
2024-01-14T11:32:38.738Z,57.8
2024-01-14T11:33:38.801Z,56.7
2024-01-14T11:34:38.852Z,56
2024-01-14T11:35:38.642Z,56.9
2024-01-14T11:36:38.736Z,56.5
2024-01-14T11:37:38.678Z,56.1
2024-01-14T11:38:38.667Z,56.8
2024-01-14T11:39:38.760Z,57.7
2024-01-14T11:40:38.652Z,55.9
2024-01-14T11:41:38.662Z,56.3
2024-01-14T11:42:38.771Z,56.5
2024-01-14T11:43:38.688Z,55.6
2024-01-14T11:44:38.688Z,55.9
2024-01-14T11:45:38.726Z,55.3
2024-01-14T11:46:38.683Z,56
2024-01-14T11:47:38.729Z,55
2024-01-14T11:48:38.880Z,55.1
2024-01-14T11:49:38.850Z,55.4
2024-01-14T11:50:38.966Z,55.6
2024-01-14T11:51:38.731Z,54.7
2024-01-14T11:52:38.679Z,54.9
2024-01-14T11:53:38.697Z,55.3
2024-01-14T11:54:38.852Z,55.2
2024-01-14T11:55:38.654Z,55.3
2024-01-14T11:56:38.717Z,55.4
2024-01-14T11:57:38.744Z,55.2
2024-01-14T11:58:38.655Z,54.2
2024-01-14T11:59:42.273Z,53.7
2024-01-14T12:00:38.797Z,53.9
2024-01-14T12:01:38.663Z,54.1
2024-01-14T12:02:38.672Z,53.9
2024-01-14T12:03:38.745Z,54.6
2024-01-14T12:04:38.711Z,54.6
2024-01-14T12:05:40.560Z,54.1
2024-01-14T12:06:38.751Z,54.1
2024-01-14T12:07:38.698Z,53.8
2024-01-14T12:08:38.653Z,54
2024-01-14T12:09:38.764Z,53.7
2024-01-14T12:10:38.686Z,52.9
2024-01-14T12:11:38.650Z,53.1
2024-01-14T12:12:38.686Z,53.3
2024-01-14T12:13:38.643Z,52.4
2024-01-14T12:14:38.965Z,51.9
2024-01-14T12:15:40.119Z,52.3
2024-01-14T12:16:38.689Z,52.4
2024-01-14T12:17:38.690Z,52.9
2024-01-14T12:18:40.907Z,52
2024-01-14T12:19:38.867Z,52.8
2024-01-14T12:20:38.673Z,53.7
2024-01-14T12:21:38.688Z,54.4
2024-01-14T12:22:38.659Z,54.1
2024-01-14T12:23:38.676Z,53.6
2024-01-14T12:24:38.759Z,53.9
2024-01-14T12:25:38.678Z,54.4
2024-01-14T12:26:38.710Z,53.3
2024-01-14T12:27:38.778Z,53.6
2024-01-14T12:28:38.631Z,53.3
2024-01-14T12:29:38.660Z,53.9
2024-01-14T12:30:38.844Z,54.1
2024-01-14T12:31:49.780Z,54.1
2024-01-14T12:32:38.781Z,54.4
2024-01-14T12:33:38.778Z,54.1
2024-01-14T12:34:38.754Z,54.1
2024-01-14T12:35:38.725Z,53.8
2024-01-14T12:36:46.028Z,53.4
2024-01-14T12:37:38.678Z,53
2024-01-14T12:38:38.684Z,53.1
2024-01-14T12:39:38.739Z,53.1
2024-01-14T12:40:39.111Z,52
2024-01-14T12:41:48.766Z,52.4
2024-01-14T12:42:38.888Z,53.2
2024-01-14T12:43:38.675Z,53.3
2024-01-14T12:44:38.642Z,52.8
2024-01-14T12:45:38.718Z,51.9
2024-01-14T12:46:47.868Z,52.7
2024-01-14T12:47:38.687Z,52.3
2024-01-14T12:48:38.742Z,52.6
2024-01-14T12:49:38.690Z,52.7
2024-01-14T12:50:38.919Z,53
2024-01-14T12:51:38.745Z,52.7
2024-01-14T12:52:38.669Z,52.4
2024-01-14T12:53:38.717Z,52.2
2024-01-14T12:54:38.728Z,51.8
2024-01-14T12:55:38.682Z,52.6
2024-01-14T12:56:38.693Z,52.4
2024-01-14T12:57:38.732Z,52.2
2024-01-14T12:58:38.686Z,51.8
2024-01-14T12:59:38.720Z,51.3
2024-01-14T13:00:38.721Z,51.4
2024-01-14T13:01:38.722Z,51.6
2024-01-14T13:02:38.778Z,51.9
2024-01-14T13:03:38.752Z,51.8
2024-01-14T13:04:38.677Z,51.9
2024-01-14T13:05:39.011Z,52.4
2024-01-14T13:06:38.676Z,52.5
2024-01-14T13:07:38.700Z,52
2024-01-14T13:08:38.703Z,52.4
2024-01-14T13:09:38.714Z,52.5
2024-01-14T13:10:38.679Z,52
2024-01-14T13:11:38.691Z,52.4
2024-01-14T13:12:40.538Z,52.1
2024-01-14T13:13:38.699Z,52.2
2024-01-14T13:14:38.680Z,52.5
2024-01-14T13:15:38.694Z,52.7
2024-01-14T13:16:42.741Z,53.1
2024-01-14T13:17:38.680Z,53.7
2024-01-14T13:18:38.803Z,53.7
2024-01-14T13:19:38.904Z,53.5
2024-01-14T13:20:38.685Z,54.3
2024-01-14T13:21:38.769Z,54.3
2024-01-14T13:22:38.717Z,53.8
2024-01-14T13:23:38.645Z,54.4